Dunkirk, Ohio
Current Conditions -  °F | °C
As of 12:53 PM on Saturday 20 Dec 2014 (Local Time) from KFDY Reporting Station
Overcast Overcast  
Wind Chill: 27°   Ceiling: 2700
Heat Index: 32°   Visibility: 8mi
Dew Point: 23°   Wind: 5mph
Humidity: 69%   Direction: NA
Pressure: 30.25"   Gusts: NA
Location:  40.79°N, 83.64°W
Report Text: KFDY 201753Z AUTO VRB04KT 8SM OVC027 00/M05 A3025 RMK AO2 SLP249 T00001050 10000 21011 58014
Loading
Personal Weather Stations






























Interactive Weather Map New forecast layout! Learn more

10-Day Weather Forecast

Advertisements
Track Severe Weather on mobile